SWA478 KBNA-KSAT
Flight info
| Callsign | SWA478 |
|---|---|
| Flight time | 2h 12m |
| Altitude | 34000 |
| Route | DANLS4 TPEEE LIT J131 TXK WINDU QERVO3 |
| Aircraft | B38M/M-SADE2E3GHIJ4J7P2RWZ/LB1D1 |
Departure
| Time | 2026-05-06 14:06 |
|---|---|
| Airport | Nashville International Airport (KBNA) |
Arrival
| Time | 2026-05-06 16:18 |
|---|---|
| Airport | San Antonio International Airport (KSAT) |
| Time | Latitude | Longitude | Altitude | Speed | Heading |
|---|---|---|---|---|---|
| 2026-05-06 13:17 | 36.12878 | -86.66685 | 576 ft | 0 kts | 42° |
| 2026-05-06 13:53 | 36.12870 | -86.66695 | 570 ft | 4 kts | 46° |
| 2026-05-06 13:53 | 36.12854 | -86.66722 | 571 ft | 4 kts | 67° |
| 2026-05-06 13:53 | 36.12851 | -86.66750 | 571 ft | 4 kts | 118° |
| 2026-05-06 13:53 | 36.12860 | -86.66760 | 573 ft | 1 kts | 156° |
| 2026-05-06 13:54 | 36.12862 | -86.66761 | 573 ft | 0 kts | 156° |
| 2026-05-06 13:58 | 36.12832 | -86.66746 | 573 ft | 10 kts | 160° |
| 2026-05-06 13:58 | 36.12738 | -86.66752 | 575 ft | 14 kts | 206° |
| 2026-05-06 13:58 | 36.12669 | -86.66821 | 576 ft | 11 kts | 220° |
| 2026-05-06 13:59 | 36.12611 | -86.66865 | 573 ft | 9 kts | 209° |
| 2026-05-06 13:59 | 36.12548 | -86.66911 | 574 ft | 13 kts | 210° |
| 2026-05-06 13:59 | 36.12449 | -86.66980 | 575 ft | 19 kts | 210° |
| 2026-05-06 13:59 | 36.12355 | -86.67061 | 580 ft | 15 kts | 222° |
| 2026-05-06 14:00 | 36.12284 | -86.67147 | 579 ft | 13 kts | 226° |
| 2026-05-06 14:00 | 36.12229 | -86.67216 | 582 ft | 9 kts | 223° |
| 2026-05-06 14:00 | 36.12194 | -86.67263 | 582 ft | 8 kts | 239° |
| 2026-05-06 14:00 | 36.12213 | -86.67330 | 573 ft | 11 kts | 315° |
| 2026-05-06 14:01 | 36.12275 | -86.67411 | 582 ft | 15 kts | 314° |
| 2026-05-06 14:01 | 36.12360 | -86.67521 | 583 ft | 20 kts | 313° |
| 2026-05-06 14:01 | 36.12463 | -86.67657 | 582 ft | 24 kts | 314° |
| 2026-05-06 14:01 | 36.12580 | -86.67809 | 581 ft | 24 kts | 313° |
| 2026-05-06 14:02 | 36.12698 | -86.67961 | 578 ft | 25 kts | 313° |
| 2026-05-06 14:02 | 36.12745 | -86.68046 | 580 ft | 7 kts | 264° |
| 2026-05-06 14:02 | 36.12715 | -86.68084 | 579 ft | 7 kts | 206° |
| 2026-05-06 14:02 | 36.12652 | -86.68110 | 578 ft | 13 kts | 197° |
| 2026-05-06 14:03 | 36.12544 | -86.68149 | 576 ft | 19 kts | 195° |
| 2026-05-06 14:03 | 36.12391 | -86.68203 | 575 ft | 27 kts | 195° |
| 2026-05-06 14:03 | 36.12199 | -86.68273 | 579 ft | 29 kts | 196° |
| 2026-05-06 14:03 | 36.12005 | -86.68341 | 583 ft | 29 kts | 196° |
| 2026-05-06 14:04 | 36.11822 | -86.68406 | 584 ft | 26 kts | 196° |
| 2026-05-06 14:04 | 36.11734 | -86.68469 | 584 ft | 9 kts | 274° |
| 2026-05-06 14:04 | 36.11754 | -86.68555 | 581 ft | 12 kts | 287° |
| 2026-05-06 14:04 | 36.11785 | -86.68628 | 579 ft | 6 kts | 336° |
| 2026-05-06 14:05 | 36.11827 | -86.68625 | 579 ft | 2 kts | 17° |
| 2026-05-06 14:05 | 36.11829 | -86.68625 | 579 ft | 0 kts | 17° |
| 2026-05-06 14:05 | 36.11998 | -86.68560 | 578 ft | 65 kts | 17° |
| 2026-05-06 14:05 | 36.12667 | -86.68297 | 580 ft | 135 kts | 17° |
| 2026-05-06 14:06 | 36.13695 | -86.67881 | 952 ft | 163 kts | 16° |
| 2026-05-06 14:06 | 36.14836 | -86.67434 | 1664 ft | 181 kts | 15° |
| 2026-05-06 14:06 | 36.16141 | -86.67176 | 2026 ft | 202 kts | 350° |
| 2026-05-06 14:06 | 36.17600 | -86.67603 | 2348 ft | 227 kts | 340° |
| 2026-05-06 14:07 | 36.19189 | -86.68159 | 2823 ft | 248 kts | 340° |
| 2026-05-06 14:07 | 36.20915 | -86.68771 | 3316 ft | 266 kts | 339° |
| 2026-05-06 14:07 | 36.22717 | -86.69414 | 4112 ft | 270 kts | 338° |
| 2026-05-06 14:07 | 36.24521 | -86.70061 | 5056 ft | 269 kts | 338° |
| 2026-05-06 14:08 | 36.26278 | -86.70845 | 5872 ft | 265 kts | 323° |
| 2026-05-06 14:08 | 36.27598 | -86.72353 | 6588 ft | 258 kts | 299° |
| 2026-05-06 14:08 | 36.28274 | -86.74363 | 6808 ft | 250 kts | 276° |
| 2026-05-06 14:08 | 36.28248 | -86.76492 | 6927 ft | 248 kts | 261° |
| 2026-05-06 14:09 | 36.27994 | -86.78624 | 6979 ft | 251 kts | 261° |
| 2026-05-06 14:09 | 36.27711 | -86.80754 | 7007 ft | 251 kts | 260° |
| 2026-05-06 14:09 | 36.27406 | -86.82882 | 7030 ft | 250 kts | 259° |
| 2026-05-06 14:09 | 36.26833 | -86.84906 | 7369 ft | 250 kts | 243° |
| 2026-05-06 14:10 | 36.26013 | -86.86770 | 8172 ft | 251 kts | 244° |
| 2026-05-06 14:10 | 36.25169 | -86.88681 | 8952 ft | 252 kts | 244° |
| 2026-05-06 14:10 | 36.24320 | -86.90585 | 9777 ft | 255 kts | 245° |
| 2026-05-06 14:10 | 36.23436 | -86.92536 | 10356 ft | 265 kts | 245° |
| 2026-05-06 14:11 | 36.22498 | -86.94598 | 10668 ft | 285 kts | 244° |
| 2026-05-06 14:11 | 36.21491 | -86.96797 | 10917 ft | 305 kts | 244° |
| 2026-05-06 14:11 | 36.20409 | -86.99147 | 11163 ft | 322 kts | 243° |
| 2026-05-06 14:11 | 36.19279 | -87.01599 | 11595 ft | 332 kts | 243° |
| 2026-05-06 14:12 | 36.18131 | -87.04087 | 12374 ft | 332 kts | 243° |
| 2026-05-06 14:12 | 36.16983 | -87.06575 | 13078 ft | 334 kts | 243° |
| 2026-05-06 14:12 | 36.15840 | -87.09048 | 13852 ft | 335 kts | 244° |
| 2026-05-06 14:12 | 36.14678 | -87.11559 | 14527 ft | 337 kts | 243° |
| 2026-05-06 14:13 | 36.13513 | -87.14076 | 15254 ft | 337 kts | 243° |
| 2026-05-06 14:13 | 36.12345 | -87.16599 | 15953 ft | 338 kts | 243° |
| 2026-05-06 14:13 | 36.11171 | -87.19133 | 16638 ft | 340 kts | 243° |
| 2026-05-06 14:13 | 36.10066 | -87.21711 | 17276 ft | 339 kts | 251° |
| 2026-05-06 14:14 | 36.09447 | -87.24519 | 17872 ft | 341 kts | 256° |
| 2026-05-06 14:14 | 36.08849 | -87.27364 | 18437 ft | 343 kts | 256° |
| 2026-05-06 14:14 | 36.08258 | -87.30234 | 18958 ft | 345 kts | 256° |
| 2026-05-06 14:14 | 36.07673 | -87.33112 | 19434 ft | 347 kts | 256° |
| 2026-05-06 14:15 | 36.07083 | -87.36023 | 19892 ft | 350 kts | 256° |
| 2026-05-06 14:15 | 36.06491 | -87.38953 | 20375 ft | 353 kts | 256° |
| 2026-05-06 14:15 | 36.05894 | -87.41907 | 20859 ft | 355 kts | 256° |
| 2026-05-06 14:15 | 36.05292 | -87.44879 | 21319 ft | 358 kts | 256° |
| 2026-05-06 14:16 | 36.04694 | -87.47832 | 21785 ft | 360 kts | 256° |
| 2026-05-06 14:16 | 36.04083 | -87.50842 | 22234 ft | 362 kts | 256° |
| 2026-05-06 14:16 | 36.03469 | -87.53867 | 22679 ft | 365 kts | 256° |
| 2026-05-06 14:16 | 36.02850 | -87.56911 | 23104 ft | 367 kts | 256° |
| 2026-05-06 14:17 | 36.02225 | -87.59975 | 23527 ft | 369 kts | 256° |
| 2026-05-06 14:17 | 36.01595 | -87.63066 | 23873 ft | 372 kts | 256° |
| 2026-05-06 14:17 | 36.00958 | -87.66180 | 24227 ft | 374 kts | 256° |
| 2026-05-06 14:17 | 36.00319 | -87.69306 | 24573 ft | 376 kts | 256° |
| 2026-05-06 14:18 | 35.99676 | -87.72443 | 24929 ft | 378 kts | 256° |
| 2026-05-06 14:18 | 35.99029 | -87.75594 | 25304 ft | 379 kts | 256° |
| 2026-05-06 14:18 | 35.98379 | -87.78762 | 25640 ft | 381 kts | 256° |
| 2026-05-06 14:18 | 35.97723 | -87.81947 | 25985 ft | 383 kts | 256° |
| 2026-05-06 14:19 | 35.97068 | -87.85127 | 26314 ft | 386 kts | 256° |
| 2026-05-06 14:19 | 35.96405 | -87.88338 | 26655 ft | 387 kts | 256° |
| 2026-05-06 14:19 | 35.95963 | -87.90477 | 26864 ft | 389 kts | 256° |
| 2026-05-06 14:19 | 35.95292 | -87.93723 | 27188 ft | 391 kts | 256° |
| 2026-05-06 14:20 | 35.94396 | -87.98047 | 27607 ft | 393 kts | 256° |
| 2026-05-06 14:20 | 35.93717 | -88.01319 | 27884 ft | 395 kts | 256° |
| 2026-05-06 14:20 | 35.93032 | -88.04613 | 28193 ft | 397 kts | 255° |
| 2026-05-06 14:20 | 35.92567 | -88.06843 | 28404 ft | 398 kts | 255° |
| 2026-05-06 14:21 | 35.91887 | -88.10109 | 28830 ft | 397 kts | 255° |
| 2026-05-06 14:21 | 35.91198 | -88.13409 | 29418 ft | 391 kts | 255° |
| 2026-05-06 14:21 | 35.90533 | -88.16593 | 29977 ft | 386 kts | 255° |
| 2026-05-06 14:21 | 35.89865 | -88.19788 | 30437 ft | 383 kts | 255° |
| 2026-05-06 14:22 | 35.89202 | -88.22955 | 30884 ft | 380 kts | 256° |
| 2026-05-06 14:22 | 35.88549 | -88.26095 | 31352 ft | 376 kts | 257° |
| 2026-05-06 14:22 | 35.88231 | -88.29282 | 31808 ft | 373 kts | 264° |
| 2026-05-06 14:22 | 35.88008 | -88.32455 | 32288 ft | 369 kts | 263° |
| 2026-05-06 14:23 | 35.87788 | -88.35597 | 32763 ft | 366 kts | 264° |
| 2026-05-06 14:23 | 35.87573 | -88.38711 | 33231 ft | 362 kts | 264° |
| 2026-05-06 14:23 | 35.87363 | -88.41786 | 33731 ft | 359 kts | 264° |
| 2026-05-06 14:23 | 35.87153 | -88.44843 | 33961 ft | 358 kts | 264° |
| 2026-05-06 14:24 | 35.86736 | -88.50902 | 33987 ft | 352 kts | 264° |
| 2026-05-06 14:24 | 35.86320 | -88.56905 | 33976 ft | 351 kts | 264° |
| 2026-05-06 14:25 | 35.85904 | -88.62869 | 33966 ft | 352 kts | 264° |
| 2026-05-06 14:25 | 35.85481 | -88.68885 | 33974 ft | 352 kts | 264° |
| 2026-05-06 14:26 | 35.85057 | -88.74872 | 33981 ft | 352 kts | 264° |
| 2026-05-06 14:26 | 35.84628 | -88.80892 | 33985 ft | 352 kts | 264° |
| 2026-05-06 14:27 | 35.83671 | -88.86757 | 34013 ft | 351 kts | 252° |
| 2026-05-06 14:27 | 35.82069 | -88.92395 | 33991 ft | 350 kts | 252° |
| 2026-05-06 14:28 | 35.80414 | -88.98057 | 33990 ft | 351 kts | 252° |
| 2026-05-06 14:28 | 35.78745 | -89.03692 | 33992 ft | 351 kts | 252° |
| 2026-05-06 14:29 | 35.77068 | -89.09330 | 33974 ft | 351 kts | 252° |
| 2026-05-06 14:29 | 35.75388 | -89.14967 | 33974 ft | 351 kts | 252° |
| 2026-05-06 14:30 | 35.73705 | -89.20600 | 33964 ft | 355 kts | 252° |
| 2026-05-06 14:30 | 35.72000 | -89.26297 | 33983 ft | 354 kts | 252° |
| 2026-05-06 14:31 | 35.70302 | -89.31958 | 33976 ft | 353 kts | 252° |
| 2026-05-06 14:31 | 35.68602 | -89.37619 | 33976 ft | 353 kts | 252° |
| 2026-05-06 14:32 | 35.66897 | -89.43279 | 33980 ft | 353 kts | 252° |
| 2026-05-06 14:32 | 35.65200 | -89.48905 | 33979 ft | 353 kts | 252° |
| 2026-05-06 14:33 | 35.63491 | -89.54559 | 33991 ft | 353 kts | 252° |
| 2026-05-06 14:33 | 35.61778 | -89.60216 | 33988 ft | 353 kts | 252° |
| 2026-05-06 14:34 | 35.60066 | -89.65858 | 33990 ft | 353 kts | 252° |
| 2026-05-06 14:34 | 35.58349 | -89.71505 | 33992 ft | 353 kts | 252° |
| 2026-05-06 14:35 | 35.56628 | -89.77152 | 33995 ft | 353 kts | 252° |
| 2026-05-06 14:35 | 35.54904 | -89.82799 | 33991 ft | 353 kts | 252° |
| 2026-05-06 14:36 | 35.53188 | -89.88411 | 33994 ft | 353 kts | 252° |
| 2026-05-06 14:36 | 35.51464 | -89.94035 | 34008 ft | 353 kts | 252° |
| 2026-05-06 14:37 | 35.49731 | -89.99680 | 33989 ft | 353 kts | 251° |
| 2026-05-06 14:37 | 35.47992 | -90.05333 | 33997 ft | 354 kts | 251° |
| 2026-05-06 14:38 | 35.46252 | -90.10976 | 33999 ft | 354 kts | 251° |
| 2026-05-06 14:38 | 35.44510 | -90.16617 | 33998 ft | 354 kts | 251° |
| 2026-05-06 14:39 | 35.42778 | -90.22216 | 33999 ft | 353 kts | 251° |
| 2026-05-06 14:39 | 35.41020 | -90.27884 | 33999 ft | 353 kts | 251° |
| 2026-05-06 14:40 | 35.39282 | -90.33479 | 34007 ft | 353 kts | 251° |
| 2026-05-06 14:40 | 35.37529 | -90.39111 | 34029 ft | 353 kts | 251° |
| 2026-05-06 14:41 | 35.35786 | -90.44704 | 34011 ft | 349 kts | 251° |
| 2026-05-06 14:41 | 35.34052 | -90.50251 | 34009 ft | 349 kts | 251° |
| 2026-05-06 14:42 | 35.32314 | -90.55806 | 34007 ft | 349 kts | 251° |
| 2026-05-06 14:42 | 35.30580 | -90.61333 | 34019 ft | 349 kts | 251° |
| 2026-05-06 14:43 | 35.28835 | -90.66888 | 34017 ft | 349 kts | 251° |
| 2026-05-06 14:43 | 35.27086 | -90.72443 | 34016 ft | 350 kts | 251° |
| 2026-05-06 14:44 | 35.25338 | -90.77986 | 34060 ft | 349 kts | 251° |
| 2026-05-06 14:45 | 35.22717 | -90.86279 | 34022 ft | 351 kts | 251° |
| 2026-05-06 14:45 | 35.20953 | -90.91845 | 34037 ft | 350 kts | 251° |
| 2026-05-06 14:46 | 35.19190 | -90.97399 | 34042 ft | 350 kts | 251° |
| 2026-05-06 14:46 | 35.17432 | -91.02927 | 34042 ft | 350 kts | 251° |
| 2026-05-06 14:47 | 35.15664 | -91.08473 | 34045 ft | 350 kts | 251° |
| 2026-05-06 14:47 | 35.13892 | -91.14026 | 34042 ft | 350 kts | 251° |
| 2026-05-06 14:48 | 35.12123 | -91.19555 | 34047 ft | 347 kts | 251° |
| 2026-05-06 14:48 | 35.10372 | -91.25022 | 34047 ft | 347 kts | 250° |
| 2026-05-06 14:49 | 35.08608 | -91.30516 | 34045 ft | 347 kts | 250° |
| 2026-05-06 14:49 | 35.06843 | -91.36005 | 34045 ft | 348 kts | 250° |
| 2026-05-06 14:50 | 35.05072 | -91.41501 | 34048 ft | 348 kts | 250° |
| 2026-05-06 14:50 | 35.03300 | -91.46990 | 34047 ft | 348 kts | 250° |
| 2026-05-06 14:51 | 35.01535 | -91.52448 | 34043 ft | 348 kts | 250° |
| 2026-05-06 14:51 | 34.99757 | -91.57937 | 34047 ft | 346 kts | 250° |
| 2026-05-06 14:52 | 34.97987 | -91.63389 | 34016 ft | 347 kts | 250° |
| 2026-05-06 14:52 | 34.96203 | -91.68877 | 34051 ft | 349 kts | 250° |
| 2026-05-06 14:53 | 34.94422 | -91.74344 | 34054 ft | 349 kts | 250° |
| 2026-05-06 14:53 | 34.92629 | -91.79839 | 34047 ft | 349 kts | 250° |
| 2026-05-06 14:54 | 34.90834 | -91.85333 | 34048 ft | 349 kts | 250° |
| 2026-05-06 14:54 | 34.89040 | -91.90814 | 34058 ft | 349 kts | 250° |
| 2026-05-06 14:55 | 34.87241 | -91.96300 | 34065 ft | 348 kts | 250° |
| 2026-05-06 14:55 | 34.85443 | -92.01775 | 34062 ft | 348 kts | 250° |
| 2026-05-06 14:56 | 34.83641 | -92.07253 | 34064 ft | 348 kts | 250° |
| 2026-05-06 14:56 | 34.81838 | -92.12723 | 34063 ft | 348 kts | 250° |
| 2026-05-06 14:56 | 34.80758 | -92.15365 | 34030 ft | 352 kts | 239° |
| 2026-05-06 14:57 | 34.79265 | -92.17673 | 34069 ft | 354 kts | 238° |
| 2026-05-06 14:57 | 34.76233 | -92.22427 | 34073 ft | 355 kts | 238° |
| 2026-05-06 14:58 | 34.73157 | -92.27138 | 34072 ft | 355 kts | 237° |
| 2026-05-06 14:58 | 34.70069 | -92.31828 | 34044 ft | 355 kts | 237° |
| 2026-05-06 14:59 | 34.66985 | -92.36501 | 34052 ft | 357 kts | 237° |
| 2026-05-06 14:59 | 34.63874 | -92.41208 | 34055 ft | 357 kts | 237° |
| 2026-05-06 15:00 | 34.60773 | -92.45893 | 34054 ft | 357 kts | 237° |
| 2026-05-06 15:00 | 34.57664 | -92.50583 | 34055 ft | 356 kts | 237° |
| 2026-05-06 15:01 | 34.54556 | -92.55266 | 34057 ft | 357 kts | 237° |
| 2026-05-06 15:01 | 34.51439 | -92.59956 | 34050 ft | 357 kts | 237° |
| 2026-05-06 15:02 | 34.48323 | -92.64638 | 34047 ft | 357 kts | 237° |
| 2026-05-06 15:02 | 34.45208 | -92.69314 | 34047 ft | 356 kts | 237° |
| 2026-05-06 15:03 | 34.42117 | -92.73946 | 34029 ft | 357 kts | 237° |
| 2026-05-06 15:03 | 34.38988 | -92.78630 | 34022 ft | 357 kts | 237° |
| 2026-05-06 15:04 | 34.35856 | -92.83312 | 34028 ft | 357 kts | 237° |
| 2026-05-06 15:04 | 34.32727 | -92.87984 | 34037 ft | 357 kts | 237° |
| 2026-05-06 15:05 | 34.29600 | -92.92646 | 34040 ft | 357 kts | 237° |
| 2026-05-06 15:05 | 34.26483 | -92.97287 | 34044 ft | 357 kts | 237° |
| 2026-05-06 15:06 | 34.23342 | -93.01957 | 34051 ft | 357 kts | 237° |
| 2026-05-06 15:06 | 34.20204 | -93.06617 | 34064 ft | 357 kts | 236° |
| 2026-05-06 15:07 | 34.17070 | -93.11267 | 34014 ft | 356 kts | 236° |
| 2026-05-06 15:07 | 34.13931 | -93.15916 | 34051 ft | 358 kts | 236° |
| 2026-05-06 15:08 | 34.11306 | -93.19799 | 34049 ft | 358 kts | 236° |
| 2026-05-06 15:08 | 34.07643 | -93.25211 | 34045 ft | 358 kts | 236° |
| 2026-05-06 15:09 | 34.04492 | -93.29861 | 34036 ft | 358 kts | 236° |
| 2026-05-06 15:09 | 34.01336 | -93.34512 | 34029 ft | 358 kts | 236° |
| 2026-05-06 15:10 | 33.98721 | -93.38360 | 34019 ft | 358 kts | 236° |
| 2026-05-06 15:10 | 33.95554 | -93.43017 | 34008 ft | 358 kts | 236° |
| 2026-05-06 15:11 | 33.92394 | -93.47656 | 34001 ft | 358 kts | 236° |
| 2026-05-06 15:11 | 33.89230 | -93.52295 | 33980 ft | 359 kts | 236° |
| 2026-05-06 15:12 | 33.86049 | -93.56954 | 34000 ft | 360 kts | 236° |
| 2026-05-06 15:12 | 33.82868 | -93.61605 | 33985 ft | 360 kts | 236° |
| 2026-05-06 15:13 | 33.79685 | -93.66254 | 33986 ft | 360 kts | 236° |
| 2026-05-06 15:13 | 33.76517 | -93.70877 | 33991 ft | 360 kts | 236° |
| 2026-05-06 15:14 | 33.73326 | -93.75525 | 33987 ft | 360 kts | 236° |
| 2026-05-06 15:14 | 33.70132 | -93.80172 | 33993 ft | 360 kts | 236° |
| 2026-05-06 15:15 | 33.66947 | -93.84800 | 33994 ft | 359 kts | 236° |
| 2026-05-06 15:15 | 33.63786 | -93.89388 | 34000 ft | 359 kts | 236° |
| 2026-05-06 15:16 | 33.60588 | -93.94025 | 33969 ft | 362 kts | 236° |
| 2026-05-06 15:16 | 33.57364 | -93.98693 | 33994 ft | 363 kts | 236° |
| 2026-05-06 15:17 | 33.54143 | -94.03352 | 33997 ft | 363 kts | 236° |
| 2026-05-06 15:17 | 33.50998 | -94.08014 | 33998 ft | 361 kts | 238° |
| 2026-05-06 15:18 | 33.47976 | -94.12816 | 33992 ft | 361 kts | 237° |
| 2026-05-06 15:18 | 33.44935 | -94.17614 | 33994 ft | 361 kts | 237° |
| 2026-05-06 15:19 | 33.41896 | -94.22399 | 33990 ft | 361 kts | 237° |
| 2026-05-06 15:19 | 33.38851 | -94.27187 | 33981 ft | 361 kts | 237° |
| 2026-05-06 15:20 | 33.35808 | -94.31966 | 33967 ft | 361 kts | 237° |
| 2026-05-06 15:20 | 33.32775 | -94.36721 | 33963 ft | 361 kts | 237° |
| 2026-05-06 15:21 | 33.29729 | -94.41491 | 33967 ft | 361 kts | 237° |
| 2026-05-06 15:21 | 33.26679 | -94.46262 | 33964 ft | 361 kts | 237° |
| 2026-05-06 15:22 | 33.23629 | -94.51027 | 33962 ft | 361 kts | 237° |
| 2026-05-06 15:22 | 33.20578 | -94.55786 | 33966 ft | 361 kts | 237° |
| 2026-05-06 15:23 | 33.17527 | -94.60540 | 33969 ft | 360 kts | 237° |
| 2026-05-06 15:23 | 33.14475 | -94.65289 | 33961 ft | 360 kts | 237° |
| 2026-05-06 15:24 | 33.11444 | -94.70000 | 33984 ft | 360 kts | 237° |
| 2026-05-06 15:24 | 33.08392 | -94.74737 | 33991 ft | 360 kts | 237° |
| 2026-05-06 15:25 | 33.05337 | -94.79474 | 33961 ft | 362 kts | 237° |
| 2026-05-06 15:25 | 33.02249 | -94.84254 | 33955 ft | 364 kts | 237° |
| 2026-05-06 15:26 | 32.99175 | -94.89007 | 33959 ft | 364 kts | 237° |
| 2026-05-06 15:26 | 32.96085 | -94.93779 | 33959 ft | 364 kts | 237° |
| 2026-05-06 15:27 | 32.92993 | -94.98546 | 33955 ft | 363 kts | 237° |
| 2026-05-06 15:27 | 32.89906 | -95.03302 | 33957 ft | 362 kts | 237° |
| 2026-05-06 15:28 | 32.86841 | -95.08016 | 33958 ft | 363 kts | 237° |
| 2026-05-06 15:28 | 32.83752 | -95.12761 | 33957 ft | 362 kts | 237° |
| 2026-05-06 15:29 | 32.80657 | -95.17510 | 33957 ft | 362 kts | 237° |
| 2026-05-06 15:29 | 32.77568 | -95.22244 | 33932 ft | 363 kts | 237° |
| 2026-05-06 15:30 | 32.74450 | -95.27016 | 33970 ft | 368 kts | 237° |
| 2026-05-06 15:30 | 32.71309 | -95.31816 | 33989 ft | 367 kts | 237° |
| 2026-05-06 15:31 | 32.68170 | -95.36608 | 34001 ft | 367 kts | 236° |
| 2026-05-06 15:31 | 32.65053 | -95.41359 | 33996 ft | 367 kts | 236° |
| 2026-05-06 15:32 | 32.60351 | -95.48516 | 33991 ft | 367 kts | 236° |
| 2026-05-06 15:32 | 32.57209 | -95.53291 | 33987 ft | 367 kts | 236° |
| 2026-05-06 15:33 | 32.54066 | -95.58061 | 33988 ft | 367 kts | 236° |
| 2026-05-06 15:33 | 32.50922 | -95.62827 | 33967 ft | 367 kts | 236° |
| 2026-05-06 15:34 | 32.47771 | -95.67598 | 33922 ft | 370 kts | 236° |
| 2026-05-06 15:34 | 32.44573 | -95.72433 | 33963 ft | 374 kts | 236° |
| 2026-05-06 15:35 | 32.41365 | -95.77277 | 33968 ft | 374 kts | 236° |
| 2026-05-06 15:35 | 32.38157 | -95.82115 | 33966 ft | 374 kts | 236° |
| 2026-05-06 15:36 | 32.34945 | -95.86952 | 33965 ft | 374 kts | 236° |
| 2026-05-06 15:36 | 32.31754 | -95.91753 | 33963 ft | 374 kts | 236° |
| 2026-05-06 15:37 | 32.28543 | -95.96576 | 33964 ft | 374 kts | 236° |
| 2026-05-06 15:37 | 32.25324 | -96.01406 | 33963 ft | 374 kts | 236° |
| 2026-05-06 15:38 | 32.22103 | -96.06232 | 33975 ft | 374 kts | 236° |
| 2026-05-06 15:38 | 32.18877 | -96.11061 | 33950 ft | 374 kts | 236° |
| 2026-05-06 15:39 | 32.15653 | -96.15879 | 33982 ft | 376 kts | 235° |
| 2026-05-06 15:39 | 32.12414 | -96.20714 | 33992 ft | 376 kts | 235° |
| 2026-05-06 15:40 | 32.09165 | -96.25557 | 34002 ft | 376 kts | 235° |
| 2026-05-06 15:40 | 32.05918 | -96.30392 | 34008 ft | 376 kts | 235° |
| 2026-05-06 15:41 | 32.02670 | -96.35222 | 34010 ft | 376 kts | 235° |
| 2026-05-06 15:41 | 31.99421 | -96.40047 | 34010 ft | 376 kts | 235° |
| 2026-05-06 15:42 | 31.96160 | -96.44884 | 34011 ft | 376 kts | 235° |
| 2026-05-06 15:42 | 31.92910 | -96.49698 | 34011 ft | 373 kts | 235° |
| 2026-05-06 15:43 | 31.89706 | -96.54439 | 33948 ft | 373 kts | 235° |
| 2026-05-06 15:43 | 31.86433 | -96.59275 | 33953 ft | 379 kts | 235° |
| 2026-05-06 15:44 | 31.83151 | -96.64118 | 33964 ft | 379 kts | 235° |
| 2026-05-06 15:44 | 31.79862 | -96.68966 | 33964 ft | 379 kts | 235° |
| 2026-05-06 15:45 | 31.76572 | -96.73808 | 33957 ft | 379 kts | 235° |
| 2026-05-06 15:45 | 31.73285 | -96.78641 | 33959 ft | 379 kts | 235° |
| 2026-05-06 15:46 | 31.70009 | -96.83453 | 33963 ft | 379 kts | 235° |
| 2026-05-06 15:46 | 31.66725 | -96.88271 | 33960 ft | 378 kts | 234° |
| 2026-05-06 15:47 | 31.63431 | -96.93098 | 34018 ft | 378 kts | 234° |
| 2026-05-06 15:47 | 31.60132 | -96.97925 | 33993 ft | 378 kts | 235° |
| 2026-05-06 15:48 | 31.56839 | -97.02738 | 34018 ft | 378 kts | 235° |
| 2026-05-06 15:48 | 31.53354 | -97.07325 | 34012 ft | 386 kts | 222° |
| 2026-05-06 15:49 | 31.50971 | -97.08843 | 34025 ft | 400 kts | 210° |
| 2026-05-06 15:49 | 31.48347 | -97.09974 | 33994 ft | 403 kts | 209° |
| 2026-05-06 15:49 | 31.43040 | -97.12158 | 34016 ft | 405 kts | 208° |
| 2026-05-06 15:50 | 31.37705 | -97.14274 | 34006 ft | 405 kts | 208° |
| 2026-05-06 15:50 | 31.32357 | -97.16371 | 34008 ft | 405 kts | 208° |
| 2026-05-06 15:51 | 31.27030 | -97.18455 | 33980 ft | 403 kts | 208° |
| 2026-05-06 15:51 | 31.21710 | -97.20534 | 33997 ft | 403 kts | 208° |
| 2026-05-06 15:52 | 31.16424 | -97.22597 | 34006 ft | 403 kts | 208° |
| 2026-05-06 15:52 | 31.11100 | -97.24673 | 34007 ft | 403 kts | 208° |
| 2026-05-06 15:53 | 31.05779 | -97.26745 | 34005 ft | 403 kts | 208° |
| 2026-05-06 15:53 | 31.00456 | -97.28816 | 33987 ft | 404 kts | 207° |
| 2026-05-06 15:54 | 30.95106 | -97.30894 | 33974 ft | 405 kts | 207° |
| 2026-05-06 15:54 | 30.89765 | -97.32967 | 33910 ft | 405 kts | 207° |
| 2026-05-06 15:55 | 30.84457 | -97.35024 | 33900 ft | 404 kts | 207° |
| 2026-05-06 15:55 | 30.79125 | -97.37089 | 33903 ft | 405 kts | 207° |
| 2026-05-06 15:56 | 30.74681 | -97.38807 | 33862 ft | 405 kts | 207° |
| 2026-05-06 15:56 | 30.69303 | -97.40884 | 33877 ft | 409 kts | 207° |
| 2026-05-06 15:57 | 30.63907 | -97.42967 | 33885 ft | 408 kts | 207° |
| 2026-05-06 15:57 | 30.58515 | -97.45045 | 33890 ft | 408 kts | 207° |
| 2026-05-06 15:58 | 30.53135 | -97.47115 | 33134 ft | 407 kts | 207° |
| 2026-05-06 15:58 | 30.50436 | -97.48153 | 32216 ft | 410 kts | 207° |
| 2026-05-06 15:58 | 30.47723 | -97.49196 | 31419 ft | 411 kts | 206° |
| 2026-05-06 15:59 | 30.45012 | -97.50237 | 30606 ft | 412 kts | 206° |
| 2026-05-06 15:59 | 30.42280 | -97.51286 | 29719 ft | 414 kts | 206° |
| 2026-05-06 15:59 | 30.39536 | -97.52340 | 28675 ft | 418 kts | 206° |
| 2026-05-06 15:59 | 30.36887 | -97.53675 | 27482 ft | 414 kts | 217° |
| 2026-05-06 16:00 | 30.34420 | -97.55405 | 26543 ft | 415 kts | 216° |
| 2026-05-06 16:00 | 30.31959 | -97.57081 | 25942 ft | 408 kts | 216° |
| 2026-05-06 16:00 | 30.29531 | -97.58751 | 25224 ft | 404 kts | 216° |
| 2026-05-06 16:00 | 30.27099 | -97.60430 | 24475 ft | 408 kts | 215° |
| 2026-05-06 16:01 | 30.24695 | -97.62091 | 23750 ft | 409 kts | 215° |
| 2026-05-06 16:01 | 30.22259 | -97.63774 | 23037 ft | 405 kts | 215° |
| 2026-05-06 16:01 | 30.19850 | -97.65439 | 22258 ft | 401 kts | 215° |
| 2026-05-06 16:01 | 30.17467 | -97.67083 | 21537 ft | 397 kts | 214° |
| 2026-05-06 16:02 | 30.15112 | -97.68709 | 20817 ft | 393 kts | 214° |
| 2026-05-06 16:02 | 30.12777 | -97.70318 | 20137 ft | 389 kts | 214° |
| 2026-05-06 16:02 | 30.10468 | -97.71909 | 19455 ft | 386 kts | 214° |
| 2026-05-06 16:02 | 30.08171 | -97.73491 | 18764 ft | 384 kts | 213° |
| 2026-05-06 16:03 | 30.05872 | -97.75074 | 18054 ft | 383 kts | 213° |
| 2026-05-06 16:03 | 30.03589 | -97.76645 | 17321 ft | 381 kts | 213° |
| 2026-05-06 16:03 | 30.01319 | -97.78207 | 16662 ft | 378 kts | 213° |
| 2026-05-06 16:03 | 29.99062 | -97.79758 | 16057 ft | 376 kts | 213° |
| 2026-05-06 16:04 | 29.96842 | -97.81283 | 15739 ft | 366 kts | 213° |
| 2026-05-06 16:04 | 29.94678 | -97.82768 | 15452 ft | 356 kts | 213° |
| 2026-05-06 16:04 | 29.92579 | -97.84210 | 15220 ft | 346 kts | 213° |
| 2026-05-06 16:04 | 29.90671 | -97.85772 | 14721 ft | 341 kts | 226° |
| 2026-05-06 16:05 | 29.89326 | -97.88002 | 14322 ft | 337 kts | 244° |
| 2026-05-06 16:05 | 29.88438 | -97.90488 | 13901 ft | 334 kts | 246° |
| 2026-05-06 16:05 | 29.87587 | -97.92967 | 13453 ft | 331 kts | 247° |
| 2026-05-06 16:05 | 29.86756 | -97.95414 | 13021 ft | 327 kts | 247° |
| 2026-05-06 16:06 | 29.85930 | -97.97853 | 12559 ft | 325 kts | 247° |
| 2026-05-06 16:06 | 29.85118 | -98.00268 | 12191 ft | 320 kts | 247° |
| 2026-05-06 16:06 | 29.84379 | -98.02640 | 11795 ft | 311 kts | 255° |
| 2026-05-06 16:06 | 29.84326 | -98.05105 | 11384 ft | 309 kts | 275° |
| 2026-05-06 16:07 | 29.84633 | -98.07489 | 11070 ft | 299 kts | 274° |
| 2026-05-06 16:07 | 29.84916 | -98.09862 | 10736 ft | 292 kts | 274° |
| 2026-05-06 16:07 | 29.85189 | -98.12125 | 10414 ft | 285 kts | 274° |
| 2026-05-06 16:07 | 29.85459 | -98.14350 | 10076 ft | 279 kts | 274° |
| 2026-05-06 16:08 | 29.85724 | -98.16530 | 9770 ft | 272 kts | 274° |
| 2026-05-06 16:08 | 29.85984 | -98.18670 | 9431 ft | 267 kts | 274° |
| 2026-05-06 16:08 | 29.86240 | -98.20768 | 9114 ft | 263 kts | 274° |
| 2026-05-06 16:08 | 29.86490 | -98.22834 | 8813 ft | 263 kts | 274° |
| 2026-05-06 16:09 | 29.86745 | -98.24935 | 8484 ft | 264 kts | 275° |
| 2026-05-06 16:09 | 29.86998 | -98.27029 | 8152 ft | 264 kts | 275° |
| 2026-05-06 16:09 | 29.87251 | -98.29116 | 7854 ft | 262 kts | 276° |
| 2026-05-06 16:09 | 29.87501 | -98.31189 | 7549 ft | 260 kts | 276° |
| 2026-05-06 16:10 | 29.87749 | -98.33248 | 7254 ft | 259 kts | 276° |
| 2026-05-06 16:10 | 29.87947 | -98.35296 | 7009 ft | 253 kts | 266° |
| 2026-05-06 16:10 | 29.87681 | -98.37241 | 7010 ft | 243 kts | 253° |
| 2026-05-06 16:10 | 29.86972 | -98.39057 | 6938 ft | 256 kts | 239° |
| 2026-05-06 16:11 | 29.86076 | -98.40861 | 6944 ft | 260 kts | 240° |
| 2026-05-06 16:11 | 29.85222 | -98.42614 | 6919 ft | 248 kts | 240° |
| 2026-05-06 16:11 | 29.84408 | -98.44302 | 6949 ft | 235 kts | 241° |
| 2026-05-06 16:11 | 29.83622 | -98.45942 | 6951 ft | 233 kts | 240° |
| 2026-05-06 16:12 | 29.82833 | -98.47563 | 6927 ft | 230 kts | 236° |
| 2026-05-06 16:12 | 29.81666 | -98.48796 | 6721 ft | 231 kts | 205° |
| 2026-05-06 16:12 | 29.80128 | -98.49327 | 6496 ft | 232 kts | 192° |
| 2026-05-06 16:12 | 29.78528 | -98.49722 | 6253 ft | 236 kts | 191° |
| 2026-05-06 16:13 | 29.76903 | -98.50108 | 5937 ft | 240 kts | 191° |
| 2026-05-06 16:13 | 29.75279 | -98.50485 | 5587 ft | 243 kts | 189° |
| 2026-05-06 16:13 | 29.73618 | -98.50862 | 5267 ft | 244 kts | 189° |
| 2026-05-06 16:13 | 29.71951 | -98.51236 | 4965 ft | 244 kts | 190° |
| 2026-05-06 16:14 | 29.70282 | -98.51607 | 4667 ft | 244 kts | 189° |
| 2026-05-06 16:14 | 29.68623 | -98.51673 | 4421 ft | 234 kts | 163° |
| 2026-05-06 16:14 | 29.67256 | -98.50819 | 4205 ft | 220 kts | 136° |
| 2026-05-06 16:14 | 29.66188 | -98.49596 | 3911 ft | 214 kts | 132° |
| 2026-05-06 16:15 | 29.65157 | -98.48381 | 3639 ft | 209 kts | 132° |
| 2026-05-06 16:15 | 29.64201 | -98.47249 | 3368 ft | 186 kts | 132° |
| 2026-05-06 16:15 | 29.63347 | -98.46227 | 3077 ft | 169 kts | 133° |
| 2026-05-06 16:15 | 29.62547 | -98.45268 | 2820 ft | 162 kts | 131° |
| 2026-05-06 16:16 | 29.61796 | -98.44368 | 2697 ft | 155 kts | 131° |
| 2026-05-06 16:16 | 29.61060 | -98.43476 | 2402 ft | 152 kts | 131° |
| 2026-05-06 16:16 | 29.60264 | -98.42678 | 2208 ft | 154 kts | 142° |
| 2026-05-06 16:16 | 29.59317 | -98.42107 | 2026 ft | 154 kts | 158° |
| 2026-05-06 16:17 | 29.58258 | -98.41913 | 1816 ft | 155 kts | 178° |
| 2026-05-06 16:17 | 29.57208 | -98.42176 | 1617 ft | 157 kts | 207° |
| 2026-05-06 16:17 | 29.56369 | -98.42979 | 1446 ft | 158 kts | 222° |
| 2026-05-06 16:17 | 29.55554 | -98.43814 | 1248 ft | 156 kts | 219° |
| 2026-05-06 16:18 | 29.54707 | -98.44631 | 1010 ft | 162 kts | 221° |
| 2026-05-06 16:18 | 29.53840 | -98.45495 | 810 ft | 162 kts | 220° |
| 2026-05-06 16:18 | 29.53114 | -98.46215 | 801 ft | 106 kts | 219° |
| 2026-05-06 16:18 | 29.52726 | -98.46594 | 810 ft | 36 kts | 221° |
| 2026-05-06 16:19 | 29.52697 | -98.46723 | 810 ft | 17 kts | 314° |
| 2026-05-06 16:19 | 29.52783 | -98.46825 | 810 ft | 19 kts | 314° |
| 2026-05-06 16:19 | 29.52871 | -98.46937 | 810 ft | 15 kts | 310° |
| 2026-05-06 16:19 | 29.52862 | -98.47028 | 810 ft | 13 kts | 257° |
| 2026-05-06 16:20 | 29.52801 | -98.47106 | 810 ft | 12 kts | 212° |
| 2026-05-06 16:20 | 29.52746 | -98.47098 | 810 ft | 3 kts | 147° |
| 2026-05-06 16:20 | 29.52737 | -98.47091 | 810 ft | 0 kts | 147° |